createdAt,value
2022-10-18T00:04:12.936Z,15.25
2022-10-18T00:09:22.026Z,15.19
2022-10-18T00:14:31.084Z,15.13
2022-10-18T00:19:40.075Z,15.19
2022-10-18T00:24:49.115Z,15.25
2022-10-18T00:29:58.208Z,15.38
2022-10-18T00:35:07.196Z,15.44
2022-10-18T00:40:16.176Z,15.5
2022-10-18T00:45:25.116Z,15.56
2022-10-18T00:50:34.262Z,15.56
2022-10-18T00:55:43.259Z,15.63
2022-10-18T01:00:52.407Z,15.69
2022-10-18T01:06:01.472Z,15.75
2022-10-18T01:11:10.622Z,15.81
2022-10-18T01:16:19.808Z,15.88
2022-10-18T01:21:28.806Z,16
2022-10-18T01:36:56.171Z,16.5
2022-10-18T01:42:05.209Z,16.5
2022-10-18T01:47:14.375Z,16.62
2022-10-18T01:52:23.395Z,16.69
2022-10-18T01:57:32.385Z,16.69
2022-10-18T02:02:41.418Z,16.69
2022-10-18T02:07:55.240Z,16.69
2022-10-18T02:12:59.727Z,16.62
2022-10-18T02:23:17.751Z,16.56
2022-10-18T02:28:26.735Z,16.5
2022-10-18T02:33:38.819Z,16.56
2022-10-18T02:38:47.718Z,16.56
2022-10-18T02:43:56.799Z,16.56
2022-10-18T02:49:05.668Z,16.56
2022-10-18T02:54:14.569Z,16.56
2022-10-18T02:59:23.543Z,16.56
2022-10-18T03:04:32.601Z,16.62
2022-10-18T03:09:41.712Z,16.69
2022-10-18T03:14:50.735Z,16.69
2022-10-18T03:19:59.808Z,16.69
2022-10-18T03:25:08.719Z,16.62
2022-10-18T03:35:15.814Z,16.56
2022-10-18T03:40:24.979Z,16.56
2022-10-18T03:45:33.824Z,16.56
2022-10-18T03:50:42.937Z,16.62
2022-10-18T03:55:52.024Z,16.56
2022-10-18T04:01:01.152Z,16.62
2022-10-18T04:06:10.200Z,16.75
2022-10-18T04:11:19.201Z,16.62
2022-10-18T04:16:31.047Z,16.62
2022-10-18T04:21:40.207Z,16.69
2022-10-18T04:26:49.076Z,16.62
2022-10-18T04:31:58.067Z,16.62
2022-10-18T04:37:06.930Z,16.5
2022-10-18T04:42:15.978Z,16.5
2022-10-18T04:47:24.878Z,16.37
2022-10-18T04:52:33.812Z,16.37
2022-10-18T04:57:42.780Z,16.31
2022-10-18T05:02:51.815Z,16.31
2022-10-18T05:08:00.753Z,16.19
2022-10-18T05:13:09.808Z,16.19
2022-10-18T05:18:18.965Z,16.19
2022-10-18T05:23:27.934Z,16.12
2022-10-18T05:28:39.963Z,16.12
2022-10-18T05:38:51.573Z,16
2022-10-18T05:44:00.515Z,15.94
2022-10-18T05:49:11.338Z,15.94
2022-10-18T06:04:24.619Z,15.88
2022-10-18T06:09:33.487Z,15.81
2022-10-18T06:14:42.428Z,15.69
2022-10-18T06:19:51.409Z,15.75
2022-10-18T06:25:00.286Z,15.75
2022-10-18T06:30:09.423Z,15.81
2022-10-18T06:35:18.468Z,15.88
2022-10-18T06:40:27.438Z,15.94
2022-10-18T06:45:36.387Z,16
2022-10-18T06:50:45.390Z,16.06
2022-10-18T06:55:54.572Z,16.12
2022-10-18T07:01:03.614Z,16.19
2022-10-18T07:06:12.655Z,16.31
2022-10-18T07:11:21.727Z,16.44
2022-10-18T07:16:30.779Z,16.44
2022-10-18T07:21:39.820Z,16.37
2022-10-18T07:31:46.794Z,16.25
2022-10-18T07:36:55.811Z,16.19
2022-10-18T07:42:04.778Z,16.06
2022-10-18T07:47:13.729Z,16.06
2022-10-18T07:52:22.512Z,16
2022-10-18T07:57:31.807Z,16.06
2022-10-18T08:02:40.661Z,16.19
2022-10-18T08:07:49.621Z,16.19
2022-10-18T08:12:58.624Z,16.44
2022-10-18T08:23:16.772Z,17
2022-10-18T08:28:25.763Z,17.06
2022-10-18T08:33:34.708Z,16.94
2022-10-18T08:38:43.745Z,16.81
2022-10-18T08:43:52.811Z,16.87
2022-10-18T08:49:01.963Z,17.12
2022-10-18T08:54:11.115Z,17.37
2022-10-18T08:59:23.255Z,17.56
2022-10-18T09:04:29.422Z,17.81
2022-10-18T09:09:38.549Z,18.06
2022-10-18T09:14:47.628Z,18.25
2022-10-18T09:19:56.665Z,18.19
2022-10-18T09:25:05.984Z,18.5
2022-10-18T09:30:15.224Z,18.94
2022-10-18T09:35:24.397Z,19.06
2022-10-18T09:40:33.487Z,19.75
2022-10-18T09:45:42.110Z,19.44
2022-10-18T09:50:51.070Z,19.25
2022-10-18T09:56:00.591Z,20.19
2022-10-18T10:01:09.780Z,21.56
2022-10-18T10:06:18.832Z,21
2022-10-18T10:11:27.600Z,19.81
2022-10-18T10:16:36.328Z,19.5
2022-10-18T10:21:45.216Z,19.25
2022-10-18T10:26:54.126Z,19.81
2022-10-18T10:32:03.174Z,19.69
2022-10-18T10:37:11.975Z,19.81
2022-10-18T10:42:21.106Z,19.69
2022-10-18T10:47:29.954Z,19.69
2022-10-18T10:52:39.104Z,19.75
2022-10-18T10:57:48.246Z,20.06
2022-10-18T11:03:05.218Z,20.12
2022-10-18T11:08:06.155Z,20
2022-10-18T11:13:15.243Z,20.06
2022-10-18T11:18:24.300Z,20
2022-10-18T11:23:33.382Z,19.94
2022-10-18T11:28:42.359Z,19.94
2022-10-18T11:34:08.009Z,20.25
2022-10-18T11:39:00.328Z,20.19
2022-10-18T11:44:09.266Z,20.06
2022-10-18T11:49:17.849Z,19.69
2022-10-18T11:54:26.703Z,19.5
2022-10-18T11:59:35.517Z,19.25
2022-10-18T12:04:48.901Z,19.12
2022-10-18T12:09:53.374Z,19.06
2022-10-18T12:15:02.354Z,19
2022-10-18T12:20:11.303Z,18.87
2022-10-18T12:30:29.738Z,18.75
2022-10-18T12:35:38.536Z,18.69
2022-10-18T12:40:47.598Z,18.69
2022-10-18T12:45:56.637Z,18.62
2022-10-18T12:56:18.344Z,18.56
2022-10-18T13:01:26.551Z,18.62
2022-10-18T13:11:44.921Z,19.37
2022-10-18T13:16:54.079Z,19.56
2022-10-18T13:22:03.017Z,19.75
2022-10-18T13:32:21.446Z,20.25
2022-10-18T13:37:30.290Z,20
2022-10-18T13:42:39.175Z,19.81
2022-10-18T13:47:48.310Z,20
2022-10-18T13:52:57.318Z,20.12
2022-10-18T13:58:06.294Z,20.12
2022-10-18T14:03:26.802Z,19.94
2022-10-18T14:08:24.404Z,19.81
2022-10-18T14:13:33.480Z,19.69
2022-10-18T14:18:42.467Z,19.56
2022-10-18T14:23:51.395Z,19.44
2022-10-18T14:29:00.816Z,19.56
2022-10-18T14:34:09.600Z,19.62
2022-10-18T14:39:18.622Z,19.75
2022-10-18T14:44:27.653Z,19.56
2022-10-18T14:49:36.673Z,19.37
2022-10-18T14:54:45.538Z,19.25
2022-10-18T14:59:54.424Z,19.12
2022-10-18T15:05:03.473Z,19
2022-10-18T15:10:12.508Z,18.94
2022-10-18T15:15:21.407Z,18.87
2022-10-18T15:20:30.428Z,18.81
2022-10-18T15:25:39.382Z,18.75
2022-10-18T15:30:48.394Z,18.62
2022-10-18T15:41:06.526Z,18.5
2022-10-18T15:46:15.478Z,18.37
2022-10-18T15:51:24.565Z,18.31
2022-10-18T15:56:33.551Z,18.25
2022-10-18T16:01:42.519Z,18.12
2022-10-18T16:06:51.346Z,18.06
2022-10-18T16:12:00.472Z,18
2022-10-18T16:17:09.340Z,17.87
2022-10-18T16:22:18.334Z,17.81
2022-10-18T16:27:27.533Z,17.75
2022-10-18T16:32:36.594Z,17.69
2022-10-18T16:37:45.510Z,17.62
2022-10-18T16:42:54.630Z,17.62
2022-10-18T16:48:03.404Z,17.62
2022-10-18T16:53:12.422Z,17.56
2022-10-18T17:03:30.467Z,17.5
2022-10-18T17:08:39.411Z,17.44
2022-10-18T17:13:48.671Z,17.56
2022-10-18T17:18:57.566Z,17.56
2022-10-18T17:24:06.385Z,17.56
2022-10-18T17:34:24.580Z,17.44
2022-10-18T17:39:33.587Z,17.37
2022-10-18T17:44:42.617Z,17.37
2022-10-18T17:49:51.617Z,17.31
2022-10-18T17:55:00.513Z,17.25
2022-10-18T18:00:09.431Z,17.12
2022-10-18T18:05:18.478Z,17.06
2022-10-18T18:10:27.493Z,17.06
2022-10-18T18:15:36.585Z,17.06
2022-10-18T18:20:45.595Z,17.06
2022-10-18T18:25:54.483Z,17.12
2022-10-18T18:31:03.269Z,17.06
2022-10-18T18:36:12.321Z,17
2022-10-18T18:41:21.138Z,17
2022-10-18T18:46:30.124Z,16.94
2022-10-18T18:51:39.296Z,16.87
2022-10-18T18:56:51.253Z,16.81
2022-10-18T19:02:00.256Z,16.69
2022-10-18T19:07:09.267Z,16.56
2022-10-18T19:12:20.485Z,16.5
2022-10-18T19:22:36.346Z,16.31
2022-10-18T19:27:45.307Z,16.31
2022-10-18T19:32:54.338Z,16.31
2022-10-18T19:38:03.581Z,16.31
2022-10-18T19:43:12.450Z,16.31
2022-10-18T19:48:21.366Z,16.37
2022-10-18T19:53:30.501Z,16.44
2022-10-18T19:58:39.567Z,16.44
2022-10-18T20:03:48.694Z,16.44
2022-10-18T20:08:57.703Z,16.44
2022-10-18T20:14:06.598Z,16.37
2022-10-18T20:19:15.717Z,16.37
2022-10-18T20:24:26.674Z,16.44
2022-10-18T20:29:35.688Z,16.44
2022-10-18T20:34:44.599Z,16.37
2022-10-18T20:39:53.665Z,16.37
2022-10-18T20:50:11.589Z,16.37
2022-10-18T20:55:20.567Z,16.31
2022-10-18T21:00:29.569Z,16.25
2022-10-18T21:05:38.551Z,16.19
2022-10-18T21:10:47.513Z,16.12
2022-10-18T21:15:56.362Z,15.94
2022-10-18T21:21:05.698Z,15.75
2022-10-18T21:26:14.508Z,15.56
2022-10-18T21:31:23.507Z,15.44
2022-10-18T21:36:32.436Z,15.31
2022-10-18T21:41:41.514Z,15.06
2022-10-18T21:46:50.503Z,14.87
2022-10-18T21:51:59.490Z,14.69
2022-10-18T22:02:17.616Z,14.44
2022-10-18T22:07:26.497Z,14.31
2022-10-18T22:12:35.558Z,14.19
2022-10-18T22:17:44.526Z,14.25
2022-10-18T22:22:53.673Z,14.19
2022-10-18T22:28:02.748Z,14.13
2022-10-18T22:33:11.699Z,14
2022-10-18T22:38:20.545Z,14
2022-10-18T22:43:29.657Z,13.81
2022-10-18T22:48:38.547Z,13.75
2022-10-18T22:53:47.358Z,13.88
2022-10-18T22:58:56.355Z,13.88
2022-10-18T23:04:05.616Z,13.94
2022-10-18T23:09:14.415Z,14.13
2022-10-18T23:14:23.638Z,14.19
2022-10-18T23:19:32.497Z,14.25
2022-10-18T23:24:41.561Z,14.31
2022-10-18T23:29:50.660Z,14.25
2022-10-18T23:34:59.603Z,14.25
2022-10-18T23:40:08.627Z,14.19
2022-10-18T23:45:17.653Z,14.19
2022-10-18T23:50:26.658Z,14
